createdAt,value
2019-02-11T00:00:51.927Z,99261.00
2019-02-11T00:03:22.525Z,99276.00
2019-02-11T00:05:53.363Z,99267.00
2019-02-11T00:08:23.687Z,99282.00
2019-02-11T00:10:54.308Z,99281.00
2019-02-11T00:13:24.692Z,99294.00
2019-02-11T00:15:55.026Z,99306.00
2019-02-11T00:18:25.359Z,99317.00
2019-02-11T00:20:55.733Z,99326.00
2019-02-11T00:23:26.631Z,99333.00
2019-02-11T00:25:57.276Z,99330.00
2019-02-11T00:28:27.561Z,99334.00
2019-02-11T00:30:58.532Z,99343.00
2019-02-11T00:33:29.412Z,99357.00
2019-02-11T00:36:00.046Z,99357.00
2019-02-11T00:38:31.498Z,99364.00
2019-02-11T00:41:01.871Z,99365.00
2019-02-11T00:43:32.230Z,99378.00
2019-02-11T00:46:02.823Z,99373.00
2019-02-11T00:48:33.175Z,99393.00
2019-02-11T00:51:03.821Z,99400.00
2019-02-11T00:53:34.881Z,99400.00
2019-02-11T00:56:05.283Z,99414.00
2019-02-11T00:58:37.973Z,99414.00
2019-02-11T01:01:08.287Z,99436.00
2019-02-11T01:03:38.573Z,99435.00
2019-02-11T01:06:10.007Z,99449.00
2019-02-11T01:08:40.626Z,99455.00
2019-02-11T01:11:11.551Z,99449.00
2019-02-11T01:13:41.895Z,99457.00
2019-02-11T01:16:12.470Z,99468.00
2019-02-11T01:18:42.791Z,99474.00
2019-02-11T01:21:13.161Z,99479.00
2019-02-11T01:23:43.596Z,99488.00
2019-02-11T01:26:14.646Z,99491.00
2019-02-11T01:28:45.682Z,99493.00
2019-02-11T01:31:16.334Z,99508.00
2019-02-11T01:33:46.705Z,99514.00
2019-02-11T01:36:24.679Z,99514.00
2019-02-11T01:38:55.010Z,99511.00
2019-02-11T01:41:25.245Z,99522.00
2019-02-11T01:43:55.623Z,99527.00
2019-02-11T01:46:26.433Z,99530.00
2019-02-11T01:48:56.767Z,99541.00
2019-02-11T01:51:27.637Z,99549.00
2019-02-11T01:53:58.224Z,99549.00
2019-02-11T01:56:34.693Z,99550.00
2019-02-11T01:59:05.061Z,99566.00
2019-02-11T02:01:35.687Z,99560.00
2019-02-11T02:04:06.406Z,99557.00
2019-02-11T02:06:36.724Z,99566.00
2019-02-11T02:09:08.040Z,99567.00
2019-02-11T02:11:38.412Z,99577.00
2019-02-11T02:14:08.796Z,99585.00
2019-02-11T02:16:39.418Z,99584.00
2019-02-11T02:19:10.054Z,99589.00
2019-02-11T02:21:40.454Z,99591.00
2019-02-11T02:24:11.412Z,99592.00
2019-02-11T02:26:41.742Z,99604.00
2019-02-11T02:29:12.402Z,99609.00
2019-02-11T02:31:43.084Z,99624.00
2019-02-11T02:34:13.687Z,99611.00
2019-02-11T02:36:44.287Z,99625.00
2019-02-11T02:39:15.060Z,99624.00
2019-02-11T02:41:45.650Z,99634.00
2019-02-11T02:44:16.278Z,99637.00
2019-02-11T02:46:46.837Z,99646.00
2019-02-11T02:49:17.412Z,99646.00
2019-02-11T02:51:47.747Z,99649.00
2019-02-11T02:54:18.342Z,99650.00
2019-02-11T02:56:48.634Z,99649.00
2019-02-11T02:59:19.256Z,99662.00
2019-02-11T03:01:49.579Z,99658.00
2019-02-11T03:04:20.240Z,99663.00
2019-02-11T03:06:50.588Z,99669.00
2019-02-11T03:09:20.881Z,99676.00
2019-02-11T03:11:51.511Z,99675.00
2019-02-11T03:14:21.863Z,99681.00
2019-02-11T03:16:52.173Z,99689.00
2019-02-11T03:19:22.512Z,99689.00
2019-02-11T03:21:53.126Z,99697.00
2019-02-11T03:24:23.488Z,99709.00
2019-02-11T03:26:54.156Z,99707.00
2019-02-11T03:29:24.502Z,99721.00
2019-02-11T03:31:55.244Z,99721.00
2019-02-11T03:34:25.934Z,99732.00
2019-02-11T03:37:07.678Z,99737.00
2019-02-11T03:39:38.292Z,99744.00
2019-02-11T03:42:08.706Z,99754.00
2019-02-11T03:44:39.679Z,99750.00
2019-02-11T03:47:10.412Z,99760.00
2019-02-11T03:49:40.715Z,99761.00
2019-02-11T03:52:11.045Z,99761.00
2019-02-11T03:54:50.536Z,99777.00
2019-02-11T03:57:21.167Z,99780.00
2019-02-11T03:59:51.813Z,99775.00
2019-02-11T04:02:22.384Z,99787.00
2019-02-11T04:04:52.747Z,99783.00
2019-02-11T04:07:23.077Z,99794.00
2019-02-11T04:09:53.405Z,99793.00
2019-02-11T04:12:24.411Z,99793.00
2019-02-11T04:14:56.077Z,99806.00
2019-02-11T04:17:26.373Z,99804.00
2019-02-11T04:19:56.723Z,99817.00
2019-02-11T04:22:27.075Z,99825.00
2019-02-11T04:24:57.403Z,99822.00
2019-02-11T04:27:28.010Z,99826.00
2019-02-11T04:29:58.952Z,99826.00
2019-02-11T04:32:29.277Z,99842.00
2019-02-11T04:34:59.584Z,99838.00
2019-02-11T04:37:29.930Z,99861.00
2019-02-11T04:40:00.577Z,99855.00
2019-02-11T04:42:30.928Z,99854.00
2019-02-11T04:45:01.570Z,99866.00
2019-02-11T04:47:31.893Z,99876.00
2019-02-11T04:50:02.588Z,99874.00
2019-02-11T04:52:32.921Z,99878.00
2019-02-11T04:55:03.248Z,99884.00
2019-02-11T04:57:33.561Z,99893.00
2019-02-11T05:00:05.320Z,99898.00
2019-02-11T05:02:36.973Z,99901.00
2019-02-11T05:05:08.861Z,99896.00
2019-02-11T05:07:39.219Z,99901.00
2019-02-11T05:10:11.649Z,99913.00
2019-02-11T05:12:42.662Z,99907.00
2019-02-11T05:15:16.768Z,99910.00
2019-02-11T05:17:47.088Z,99923.00
2019-02-11T05:20:17.810Z,99922.00
2019-02-11T05:22:48.110Z,99935.00
2019-02-11T05:25:18.452Z,99936.00
2019-02-11T05:27:49.070Z,99937.00
2019-02-11T05:30:19.371Z,99944.00
2019-02-11T05:32:49.737Z,99935.00
2019-02-11T05:35:20.103Z,99948.00
2019-02-11T05:37:50.418Z,99946.00
2019-02-11T05:40:20.749Z,99956.00
2019-02-11T05:42:51.747Z,99959.00
2019-02-11T05:45:22.341Z,99954.00
2019-02-11T05:47:53.160Z,99957.00
2019-02-11T05:50:23.555Z,99960.00
2019-02-11T05:53:00.337Z,99968.00
2019-02-11T05:55:30.688Z,99972.00
2019-02-11T05:58:01.318Z,99979.00
2019-02-11T06:00:31.660Z,99974.00
2019-02-11T06:03:02.029Z,99973.00
2019-02-11T06:05:32.394Z,99972.00
2019-02-11T06:08:02.740Z,99983.00
2019-02-11T06:10:33.187Z,99985.00
2019-02-11T06:13:03.785Z,99983.00
2019-02-11T06:15:34.502Z,99989.00
2019-02-11T06:18:04.860Z,99992.00
2019-02-11T06:20:42.615Z,99993.00
2019-02-11T06:23:13.012Z,100004.00
2019-02-11T06:25:43.373Z,100014.00
2019-02-11T06:28:13.986Z,100023.00
2019-02-11T06:30:44.348Z,100024.00
2019-02-11T06:33:14.728Z,100025.00
2019-02-11T06:35:45.099Z,100034.00
2019-02-11T06:38:15.568Z,100044.00
2019-02-11T06:40:46.165Z,100042.00
2019-02-11T06:43:16.858Z,100053.00
2019-02-11T06:45:47.272Z,100059.00
2019-02-11T06:48:17.583Z,100073.00
2019-02-11T06:50:48.404Z,100085.00
2019-02-11T06:53:18.717Z,100084.00
2019-02-11T06:55:49.161Z,100097.00
2019-02-11T06:58:19.794Z,100112.00
2019-02-11T07:00:50.474Z,100124.00
2019-02-11T07:03:21.127Z,100128.00
2019-02-11T07:05:51.862Z,100132.00
2019-02-11T07:08:25.534Z,100136.00
2019-02-11T07:10:56.030Z,100148.00
2019-02-11T07:13:26.426Z,100161.00
2019-02-11T07:15:56.776Z,100161.00
2019-02-11T07:18:27.229Z,100155.00
2019-02-11T07:21:17.166Z,100164.00
2019-02-11T07:23:47.730Z,100172.00
2019-02-11T07:26:18.079Z,100188.00
2019-02-11T07:28:48.456Z,100185.00
2019-02-11T07:31:19.115Z,100204.00
2019-02-11T07:33:49.460Z,100200.00
2019-02-11T07:36:20.151Z,100200.00
2019-02-11T07:39:00.983Z,100229.00
2019-02-11T07:41:41.156Z,100225.00
2019-02-11T07:44:33.329Z,100240.00
2019-02-11T07:47:04.164Z,100231.00
2019-02-11T07:49:34.571Z,100242.00
2019-02-11T07:52:04.937Z,100251.00
2019-02-11T07:54:35.268Z,100259.00
2019-02-11T07:57:05.850Z,100259.00
2019-02-11T07:59:36.190Z,100266.00
2019-02-11T08:02:06.583Z,100269.00
2019-02-11T08:04:36.936Z,100278.00
2019-02-11T08:07:07.280Z,100285.00
2019-02-11T08:09:37.599Z,100289.00
2019-02-11T08:12:08.419Z,100305.00
2019-02-11T08:14:38.985Z,100298.00
2019-02-11T08:17:10.212Z,100315.00
2019-02-11T08:19:40.905Z,100332.00
2019-02-11T08:22:11.219Z,100323.00
2019-02-11T08:24:41.818Z,100332.00
2019-02-11T08:27:12.404Z,100323.00
2019-02-11T08:29:42.732Z,100342.00
2019-02-11T08:32:13.035Z,100347.00
2019-02-11T08:34:43.867Z,100338.00
2019-02-11T08:37:14.476Z,100356.00
2019-02-11T08:39:45.348Z,100359.00
2019-02-11T08:42:15.714Z,100361.00
2019-02-11T08:44:46.033Z,100381.00
2019-02-11T08:47:16.694Z,100372.00
2019-02-11T08:49:47.092Z,100382.00
2019-02-11T08:52:17.464Z,100377.00
2019-02-11T08:54:49.102Z,100379.00
2019-02-11T08:57:19.716Z,100399.00
2019-02-11T08:59:50.327Z,100398.00
2019-02-11T09:02:20.935Z,100395.00
2019-02-11T09:04:51.413Z,100409.00
2019-02-11T09:07:21.782Z,100411.00
2019-02-11T09:09:52.115Z,100422.00
2019-02-11T09:12:23.014Z,100424.00
2019-02-11T09:14:53.354Z,100420.00
2019-02-11T09:17:23.751Z,100426.00
2019-02-11T09:19:54.087Z,100436.00
2019-02-11T09:22:24.423Z,100439.00
2019-02-11T09:24:54.751Z,100440.00
2019-02-11T09:27:25.185Z,100438.00
2019-02-11T09:29:55.411Z,100442.00
2019-02-11T09:32:26.484Z,100461.00
2019-02-11T09:34:57.364Z,100460.00
2019-02-11T09:37:27.726Z,100475.00
2019-02-11T09:39:58.094Z,100476.00
2019-02-11T09:42:28.854Z,100482.00
2019-02-11T09:44:59.431Z,100491.00
2019-02-11T09:47:29.778Z,100489.00
2019-02-11T09:50:22.447Z,100494.00
2019-02-11T09:52:52.782Z,100494.00
2019-02-11T09:55:26.627Z,100503.00
2019-02-11T09:57:57.228Z,100506.00
2019-02-11T10:00:27.881Z,100520.00
2019-02-11T10:02:58.252Z,100524.00
2019-02-11T10:05:28.837Z,100531.00
2019-02-11T10:07:59.174Z,100544.00
2019-02-11T10:10:30.108Z,100552.00
2019-02-11T10:13:00.457Z,100554.00
2019-02-11T10:15:30.822Z,100566.00
2019-02-11T10:18:01.717Z,100564.00
2019-02-11T10:20:32.376Z,100576.00
2019-02-11T10:23:17.238Z,100576.00
2019-02-11T10:25:48.168Z,100586.00
2019-02-11T10:28:18.506Z,100577.00
2019-02-11T10:30:49.148Z,100579.00
2019-02-11T10:33:19.442Z,100583.00
2019-02-11T10:35:50.376Z,100594.00
2019-02-11T10:38:20.840Z,100580.00
2019-02-11T10:40:52.071Z,100586.00
2019-02-11T10:43:22.390Z,100591.00
2019-02-11T10:45:53.033Z,100617.00
2019-02-11T10:48:23.370Z,100639.00
2019-02-11T10:50:54.131Z,100648.00
2019-02-11T10:53:24.357Z,100651.00
2019-02-11T10:55:54.680Z,100649.00
2019-02-11T10:58:24.989Z,100661.00
2019-02-11T11:00:55.322Z,100662.00
2019-02-11T11:03:26.386Z,100673.00
2019-02-11T11:05:56.739Z,100657.00
2019-02-11T11:08:27.041Z,100678.00
2019-02-11T11:10:57.416Z,100685.00
2019-02-11T11:13:27.879Z,100695.00
2019-02-11T11:15:58.474Z,100689.00
2019-02-11T11:18:29.066Z,100712.00
2019-02-11T11:21:00.011Z,100702.00
2019-02-11T11:23:30.371Z,100713.00
2019-02-11T11:26:02.189Z,100710.00
2019-02-11T11:28:33.082Z,100721.00
2019-02-11T11:31:03.391Z,100712.00
2019-02-11T11:33:35.446Z,100711.00
2019-02-11T11:36:06.139Z,100700.00
2019-02-11T11:38:36.476Z,100689.00
2019-02-11T11:41:07.287Z,100715.00
2019-02-11T11:43:37.894Z,100724.00
2019-02-11T11:46:08.263Z,100721.00
2019-02-11T11:48:38.656Z,100717.00
2019-02-11T11:51:09.024Z,100741.00
2019-02-11T11:53:39.411Z,100752.00
2019-02-11T11:56:09.950Z,100759.00
2019-02-11T11:58:40.841Z,100759.00
2019-02-11T12:01:11.701Z,100754.00
2019-02-11T12:03:42.451Z,100760.00
2019-02-11T12:06:12.765Z,100774.00
2019-02-11T12:08:43.098Z,100788.00
2019-02-11T12:11:13.387Z,100774.00
2019-02-11T12:13:43.990Z,100782.00
2019-02-11T12:16:14.682Z,100784.00
2019-02-11T12:18:45.016Z,100803.00
2019-02-11T12:21:15.415Z,100803.00
2019-02-11T12:24:03.442Z,100805.00
2019-02-11T12:26:33.783Z,100811.00
2019-02-11T12:29:04.156Z,100823.00
2019-02-11T12:31:34.845Z,100812.00
2019-02-11T12:34:05.224Z,100836.00
2019-02-11T12:36:35.837Z,100832.00
2019-02-11T12:39:06.761Z,100848.00
2019-02-11T12:41:37.045Z,100848.00
2019-02-11T12:44:07.380Z,100851.00
2019-02-11T12:46:52.934Z,100851.00
2019-02-11T12:49:23.287Z,100869.00
2019-02-11T12:51:53.642Z,100863.00
2019-02-11T12:54:24.004Z,100883.00
2019-02-11T12:56:54.406Z,100875.00
2019-02-11T12:59:24.726Z,100883.00
2019-02-11T13:01:55.615Z,100875.00
2019-02-11T13:04:25.947Z,100870.00
2019-02-11T13:06:56.295Z,100882.00
2019-02-11T13:09:26.733Z,100882.00
2019-02-11T13:11:57.039Z,100895.00
2019-02-11T13:14:27.367Z,100885.00
2019-02-11T13:16:57.722Z,100904.00
2019-02-11T13:19:28.046Z,100895.00
2019-02-11T13:21:58.434Z,100904.00
2019-02-11T13:24:29.127Z,100911.00
2019-02-11T13:26:59.496Z,100910.00
2019-02-11T13:29:30.149Z,100922.00
2019-02-11T13:32:01.017Z,100936.00
2019-02-11T13:34:31.628Z,100932.00
2019-02-11T13:37:01.988Z,100948.00
2019-02-11T13:39:32.399Z,100960.00
2019-02-11T13:42:02.756Z,100962.00
2019-02-11T13:44:33.327Z,100965.00
2019-02-11T13:47:04.090Z,100976.00
2019-02-11T13:49:34.761Z,100985.00
2019-02-11T13:52:05.149Z,100979.00
2019-02-11T13:54:35.530Z,101004.00
2019-02-11T13:57:06.151Z,101001.00
2019-02-11T13:59:36.565Z,101010.00
2019-02-11T14:02:07.331Z,101012.00
2019-02-11T14:04:37.646Z,101027.00
2019-02-11T14:07:08.050Z,101027.00
2019-02-11T14:09:38.504Z,101026.00
2019-02-11T14:12:09.838Z,101043.00
2019-02-11T14:14:40.235Z,101041.00
2019-02-11T14:17:10.837Z,101049.00
2019-02-11T14:19:41.178Z,101055.00
2019-02-11T14:22:11.651Z,101055.00
2019-02-11T14:24:41.974Z,101056.00
2019-02-11T14:27:12.346Z,101057.00
2019-02-11T14:29:42.697Z,101075.00
2019-02-11T14:32:13.534Z,101089.00
2019-02-11T14:34:43.940Z,101085.00
2019-02-11T14:37:14.337Z,101083.00
2019-02-11T14:39:44.778Z,101095.00
2019-02-11T14:42:15.684Z,101108.00
2019-02-11T14:44:46.188Z,101113.00
2019-02-11T14:47:16.570Z,101126.00
2019-02-11T14:49:47.256Z,101147.00
2019-02-11T14:52:17.828Z,101128.00
2019-02-11T14:54:48.168Z,101138.00
2019-02-11T14:57:18.529Z,101139.00
2019-02-11T14:59:49.221Z,101154.00
2019-02-11T15:02:19.572Z,101162.00
2019-02-11T15:04:49.946Z,101151.00
2019-02-11T15:07:20.411Z,101168.00
2019-02-11T15:09:50.843Z,101177.00
2019-02-11T15:12:21.371Z,101176.00
2019-02-11T15:14:51.779Z,101183.00
2019-02-11T15:17:22.890Z,101188.00
2019-02-11T15:19:53.531Z,101196.00
2019-02-11T15:22:24.164Z,101191.00
2019-02-11T15:24:54.523Z,101201.00
2019-02-11T15:27:25.521Z,101216.00
2019-02-11T15:29:55.866Z,101219.00
2019-02-11T15:32:26.215Z,101224.00
2019-02-11T15:34:56.830Z,101226.00
2019-02-11T15:37:27.238Z,101239.00
2019-02-11T15:39:57.612Z,101243.00
2019-02-11T15:42:28.899Z,101253.00
2019-02-11T15:45:01.386Z,101263.00
2019-02-11T15:47:31.711Z,101269.00
2019-02-11T15:50:02.773Z,101267.00
2019-02-11T15:52:33.123Z,101284.00
2019-02-11T15:55:03.588Z,101289.00
2019-02-11T15:57:33.940Z,101299.00
2019-02-11T16:00:05.455Z,101305.00
2019-02-11T16:02:35.817Z,101322.00
2019-02-11T16:05:16.081Z,101332.00
2019-02-11T16:07:41.774Z,101347.00
2019-02-11T16:10:15.135Z,101339.00
2019-02-11T16:12:45.523Z,101370.00
2019-02-11T16:15:16.137Z,101377.00
2019-02-11T16:17:46.513Z,101375.00
2019-02-11T16:20:22.876Z,101382.00
2019-02-11T16:22:53.384Z,101386.00
2019-02-11T16:25:24.372Z,101407.00
2019-02-11T16:27:54.735Z,101410.00
2019-02-11T16:30:25.181Z,101418.00
2019-02-11T16:32:55.501Z,101428.00
2019-02-11T16:35:26.379Z,101449.00
2019-02-11T16:37:57.411Z,101428.00
2019-02-11T16:40:37.390Z,101440.00
2019-02-11T16:43:07.745Z,101444.00
2019-02-11T16:45:38.622Z,101456.00
2019-02-11T16:48:09.387Z,101460.00
2019-02-11T16:50:40.780Z,101461.00
2019-02-11T16:53:11.633Z,101472.00
2019-02-11T16:55:42.538Z,101493.00
2019-02-11T16:58:12.864Z,101487.00
2019-02-11T17:00:43.972Z,101498.00
2019-02-11T17:03:14.456Z,101500.00
2019-02-11T17:05:45.123Z,101501.00
2019-02-11T17:08:15.469Z,101515.00
2019-02-11T17:10:45.829Z,101528.00
2019-02-11T17:13:16.421Z,101532.00
2019-02-11T17:15:47.777Z,101541.00
2019-02-11T17:18:18.141Z,101543.00
2019-02-11T17:20:48.472Z,101550.00
2019-02-11T17:23:19.312Z,101560.00
2019-02-11T17:25:49.734Z,101558.00
2019-02-11T17:28:20.315Z,101555.00
2019-02-11T17:30:52.183Z,101573.00
2019-02-11T17:33:23.099Z,101558.00
2019-02-11T17:35:53.538Z,101558.00
2019-02-11T17:38:24.218Z,101568.00
2019-02-11T17:40:54.858Z,101568.00
2019-02-11T17:43:25.475Z,101584.00
2019-02-11T17:45:56.997Z,101573.00
2019-02-11T17:48:27.956Z,101582.00
2019-02-11T17:50:58.306Z,101585.00
2019-02-11T17:53:28.720Z,101587.00
2019-02-11T17:55:59.341Z,101596.00
2019-02-11T17:58:30.307Z,101593.00
2019-02-11T18:01:01.635Z,101604.00
2019-02-11T18:03:32.302Z,101614.00
2019-02-11T18:06:02.663Z,101612.00
2019-02-11T18:08:33.303Z,101613.00
2019-02-11T18:11:04.068Z,101616.00
2019-02-11T18:13:34.408Z,101617.00
2019-02-11T18:16:04.914Z,101628.00
2019-02-11T18:18:42.600Z,101635.00
2019-02-11T18:21:13.371Z,101633.00
2019-02-11T18:23:43.708Z,101636.00
2019-02-11T18:26:14.326Z,101635.00
2019-02-11T18:28:44.684Z,101629.00
2019-02-11T18:31:15.028Z,101647.00
2019-02-11T18:33:45.408Z,101655.00
2019-02-11T18:36:16.747Z,101657.00
2019-02-11T18:38:47.135Z,101650.00
2019-02-11T18:41:17.477Z,101659.00
2019-02-11T18:43:48.539Z,101661.00
2019-02-11T18:46:25.019Z,101673.00
2019-02-11T18:49:03.866Z,101691.00
2019-02-11T18:51:34.636Z,101691.00
2019-02-11T18:54:05.018Z,101699.00
2019-02-11T18:56:35.458Z,101694.00
2019-02-11T18:59:06.324Z,101697.00
2019-02-11T19:01:37.234Z,101708.00
2019-02-11T19:04:09.023Z,101701.00
2019-02-11T19:06:45.608Z,101707.00
2019-02-11T19:09:18.649Z,101712.00
2019-02-11T19:11:49.281Z,101716.00
2019-02-11T19:14:19.981Z,101708.00
2019-02-11T19:16:50.351Z,101720.00
2019-02-11T19:19:21.327Z,101728.00
2019-02-11T19:21:51.709Z,101734.00
2019-02-11T19:24:22.121Z,101728.00
2019-02-11T19:26:52.613Z,101721.00
2019-02-11T19:29:23.031Z,101717.00
2019-02-11T19:31:53.658Z,101727.00
2019-02-11T19:34:24.055Z,101727.00
2019-02-11T19:36:54.853Z,101728.00
2019-02-11T19:39:25.187Z,101738.00
2019-02-11T19:41:56.313Z,101738.00
2019-02-11T19:44:26.975Z,101731.00
2019-02-11T19:46:59.608Z,101737.00
2019-02-11T19:49:30.265Z,101731.00
2019-02-11T19:52:00.667Z,101738.00
2019-02-11T19:54:31.138Z,101732.00
2019-02-11T19:57:01.559Z,101727.00
2019-02-11T19:59:31.894Z,101734.00
2019-02-11T20:02:02.679Z,101725.00
2019-02-11T20:04:33.075Z,101721.00
2019-02-11T20:07:22.737Z,101739.00
2019-02-11T20:09:53.676Z,101736.00
2019-02-11T20:12:24.096Z,101735.00
2019-02-11T20:14:55.165Z,101749.00
2019-02-11T20:17:27.582Z,101750.00
2019-02-11T20:20:00.338Z,101774.00
2019-02-11T20:22:30.577Z,101782.00
2019-02-11T20:25:02.231Z,101783.00
2019-02-11T20:27:33.280Z,101787.00
2019-02-11T20:30:03.693Z,101798.00
2019-02-11T20:32:34.038Z,101794.00
2019-02-11T20:35:04.565Z,101803.00
2019-02-11T20:37:34.956Z,101821.00
2019-02-11T20:40:07.435Z,101817.00
2019-02-11T20:42:37.839Z,101813.00
2019-02-11T20:45:13.633Z,101819.00
2019-02-11T20:47:44.677Z,101832.00
2019-02-11T20:50:15.051Z,101817.00
2019-02-11T20:52:45.467Z,101827.00
2019-02-11T20:55:15.923Z,101819.00
2019-02-11T20:57:46.438Z,101820.00
2019-02-11T21:00:36.145Z,101817.00
2019-02-11T21:03:08.620Z,101806.00
2019-02-11T21:05:39.430Z,101828.00
2019-02-11T21:08:09.797Z,101823.00
2019-02-11T21:10:40.191Z,101834.00
2019-02-11T21:13:17.412Z,101822.00
2019-02-11T21:15:48.217Z,101841.00
2019-02-11T21:18:18.620Z,101853.00
2019-02-11T21:20:48.996Z,101848.00
2019-02-11T21:23:19.772Z,101862.00
2019-02-11T21:25:50.227Z,101848.00
2019-02-11T21:28:21.008Z,101849.00
2019-02-11T21:30:51.527Z,101846.00
2019-02-11T21:33:21.987Z,101864.00
2019-02-11T21:35:52.611Z,101858.00
2019-02-11T21:38:23.068Z,101879.00
2019-02-11T21:40:53.630Z,101871.00
2019-02-11T21:43:24.005Z,101875.00
2019-02-11T21:45:54.443Z,101869.00
2019-02-11T21:48:25.236Z,101872.00
2019-02-11T21:50:56.194Z,101870.00
2019-02-11T21:53:26.892Z,101877.00
2019-02-11T21:55:57.983Z,101881.00
2019-02-11T21:58:29.500Z,101886.00
2019-02-11T22:01:02.403Z,101908.00
2019-02-11T22:03:32.360Z,101904.00
2019-02-11T22:06:09.001Z,101905.00
2019-02-11T22:08:39.454Z,101899.00
2019-02-11T22:11:10.294Z,101901.00
2019-02-11T22:13:41.410Z,101897.00
2019-02-11T22:16:12.140Z,101904.00
2019-02-11T22:18:43.116Z,101907.00
2019-02-11T22:21:13.774Z,101909.00
2019-02-11T22:23:44.125Z,101899.00
2019-02-11T22:26:14.527Z,101906.00
2019-02-11T22:28:45.820Z,101902.00
2019-02-11T22:31:17.312Z,101913.00
2019-02-11T22:33:48.282Z,101921.00
2019-02-11T22:36:38.048Z,101919.00
2019-02-11T22:39:14.706Z,101931.00
2019-02-11T22:41:45.191Z,101930.00
2019-02-11T22:44:15.609Z,101929.00
2019-02-11T22:46:46.022Z,101940.00
2019-02-11T22:49:16.439Z,101955.00
2019-02-11T22:51:56.020Z,101946.00
2019-02-11T22:54:26.736Z,101954.00
2019-02-11T22:56:57.495Z,101944.00
2019-02-11T22:59:29.070Z,101946.00
2019-02-11T23:01:59.888Z,101941.00
2019-02-11T23:04:30.857Z,101935.00
2019-02-11T23:07:01.554Z,101930.00
2019-02-11T23:09:31.943Z,101931.00
2019-02-11T23:12:02.364Z,101955.00
2019-02-11T23:14:33.035Z,101943.00
2019-02-11T23:17:03.766Z,101944.00
2019-02-11T23:19:34.082Z,101957.00
2019-02-11T23:22:04.447Z,101965.00
2019-02-11T23:24:35.239Z,101966.00
2019-02-11T23:27:05.626Z,101964.00
2019-02-11T23:29:35.948Z,101963.00
2019-02-11T23:32:06.951Z,101970.00
2019-02-11T23:34:37.707Z,101978.00
2019-02-11T23:37:08.092Z,101983.00
2019-02-11T23:39:38.505Z,101987.00
2019-02-11T23:42:08.906Z,101973.00
2019-02-11T23:44:39.275Z,101976.00
2019-02-11T23:47:10.026Z,101979.00
2019-02-11T23:49:40.758Z,101987.00
2019-02-11T23:52:11.119Z,101985.00
2019-02-11T23:54:41.450Z,101986.00
2019-02-11T23:57:11.953Z,101991.00
2019-02-11T23:59:42.225Z,101998.00
